sensor_id;sensor_type;location;lat;lon;timestamp;temperature;humidity
65369;HTU21D;51970;53.484;49.488;2022-10-20T00:02:11;6.27;90.88
65369;HTU21D;51970;53.484;49.488;2022-10-20T00:04:43;6.30;91.08
65369;HTU21D;51970;53.484;49.488;2022-10-20T00:07:14;6.29;91.11
65369;HTU21D;51970;53.484;49.488;2022-10-20T00:09:45;6.27;91.02
65369;HTU21D;51970;53.484;49.488;2022-10-20T00:12:16;6.31;90.81
65369;HTU21D;51970;53.484;49.488;2022-10-20T00:14:48;6.31;90.44
65369;HTU21D;51970;53.484;49.488;2022-10-20T00:17:19;6.33;90.41
65369;HTU21D;51970;53.484;49.488;2022-10-20T00:19:50;6.34;90.47
65369;HTU21D;51970;53.484;49.488;2022-10-20T00:22:21;6.30;90.33
65369;HTU21D;51970;53.484;49.488;2022-10-20T00:24:53;6.22;90.12
65369;HTU21D;51970;53.484;49.488;2022-10-20T00:27:24;6.14;90.35
65369;HTU21D;51970;53.484;49.488;2022-10-20T00:29:55;6.12;90.34
65369;HTU21D;51970;53.484;49.488;2022-10-20T00:32:26;6.12;90.54
65369;HTU21D;51970;53.484;49.488;2022-10-20T00:34:59;6.06;90.33
65369;HTU21D;51970;53.484;49.488;2022-10-20T00:37:30;6.07;90.20
65369;HTU21D;51970;53.484;49.488;2022-10-20T00:40:02;6.04;89.77
65369;HTU21D;51970;53.484;49.488;2022-10-20T00:42:33;6.00;90.06
65369;HTU21D;51970;53.484;49.488;2022-10-20T00:45:11;6.00;90.04
65369;HTU21D;51970;53.484;49.488;2022-10-20T00:47:45;5.99;89.89
65369;HTU21D;51970;53.484;49.488;2022-10-20T00:50:21;5.99;89.78
65369;HTU21D;51970;53.484;49.488;2022-10-20T00:52:54;5.95;89.95
65369;HTU21D;51970;53.484;49.488;2022-10-20T00:55:28;5.89;90.08
65369;HTU21D;51970;53.484;49.488;2022-10-20T00:58:01;5.87;90.44
65369;HTU21D;51970;53.484;49.488;2022-10-20T01:00:33;5.84;90.66
65369;HTU21D;51970;53.484;49.488;2022-10-20T01:03:05;5.80;90.57
65369;HTU21D;51970;53.484;49.488;2022-10-20T01:05:38;5.75;90.62
65369;HTU21D;51970;53.484;49.488;2022-10-20T01:08:09;5.68;90.64
65369;HTU21D;51970;53.484;49.488;2022-10-20T01:13:41;5.60;91.08
65369;HTU21D;51970;53.484;49.488;2022-10-20T01:16:24;5.51;91.03
65369;HTU21D;51970;53.484;49.488;2022-10-20T01:35:51;5.30;90.99
65369;HTU21D;51970;53.484;49.488;2022-10-20T01:43:56;5.22;91.31
65369;HTU21D;51970;53.484;49.488;2022-10-20T01:46:28;5.20;91.22
65369;HTU21D;51970;53.484;49.488;2022-10-20T01:49:02;5.19;91.31
65369;HTU21D;51970;53.484;49.488;2022-10-20T01:51:33;5.15;91.21
65369;HTU21D;51970;53.484;49.488;2022-10-20T01:54:05;5.22;91.48
65369;HTU21D;51970;53.484;49.488;2022-10-20T01:59:41;5.36;91.23
65369;HTU21D;51970;53.484;49.488;2022-10-20T02:08:21;5.35;90.87
65369;HTU21D;51970;53.484;49.488;2022-10-20T02:10:58;5.38;90.63
65369;HTU21D;51970;53.484;49.488;2022-10-20T02:13:35;5.37;90.50
65369;HTU21D;51970;53.484;49.488;2022-10-20T02:19:13;5.51;90.34
65369;HTU21D;51970;53.484;49.488;2022-10-20T02:21:46;5.56;90.23
65369;HTU21D;51970;53.484;49.488;2022-10-20T02:24:21;5.61;90.01
65369;HTU21D;51970;53.484;49.488;2022-10-20T02:26:56;5.62;89.78
65369;HTU21D;51970;53.484;49.488;2022-10-20T02:29:35;5.64;89.60
65369;HTU21D;51970;53.484;49.488;2022-10-20T02:32:09;5.62;89.37
65369;HTU21D;51970;53.484;49.488;2022-10-20T02:34:42;5.61;89.46
65369;HTU21D;51970;53.484;49.488;2022-10-20T02:37:14;5.63;89.47
65369;HTU21D;51970;53.484;49.488;2022-10-20T02:39:45;5.64;89.26
65369;HTU21D;51970;53.484;49.488;2022-10-20T02:42:16;5.65;89.52
65369;HTU21D;51970;53.484;49.488;2022-10-20T02:44:48;5.62;89.13
65369;HTU21D;51970;53.484;49.488;2022-10-20T02:47:19;5.57;89.31
65369;HTU21D;51970;53.484;49.488;2022-10-20T02:49:50;5.52;89.41
65369;HTU21D;51970;53.484;49.488;2022-10-20T02:52:22;5.52;89.63
65369;HTU21D;51970;53.484;49.488;2022-10-20T02:54:53;5.53;89.63
65369;HTU21D;51970;53.484;49.488;2022-10-20T02:57:25;5.52;89.60
65369;HTU21D;51970;53.484;49.488;2022-10-20T02:59:56;5.52;89.60
65369;HTU21D;51970;53.484;49.488;2022-10-20T03:02:28;5.52;89.66
65369;HTU21D;51970;53.484;49.488;2022-10-20T03:04:59;5.51;89.56
65369;HTU21D;51970;53.484;49.488;2022-10-20T03:07:31;5.55;89.59
65369;HTU21D;51970;53.484;49.488;2022-10-20T03:10:03;5.51;89.61
65369;HTU21D;51970;53.484;49.488;2022-10-20T03:12:34;5.51;89.54
65369;HTU21D;51970;53.484;49.488;2022-10-20T03:15:06;5.53;89.42
65369;HTU21D;51970;53.484;49.488;2022-10-20T03:17:37;5.54;89.33
65369;HTU21D;51970;53.484;49.488;2022-10-20T03:20:09;5.56;89.38
65369;HTU21D;51970;53.484;49.488;2022-10-20T03:22:40;5.59;89.31
65369;HTU21D;51970;53.484;49.488;2022-10-20T03:25:11;5.60;89.07
65369;HTU21D;51970;53.484;49.488;2022-10-20T03:27:43;5.61;89.30
65369;HTU21D;51970;53.484;49.488;2022-10-20T03:30:14;5.64;89.12
65369;HTU21D;51970;53.484;49.488;2022-10-20T03:32:45;5.64;88.92
65369;HTU21D;51970;53.484;49.488;2022-10-20T03:35:17;5.71;89.15
65369;HTU21D;51970;53.484;49.488;2022-10-20T03:37:48;5.67;89.05
65369;HTU21D;51970;53.484;49.488;2022-10-20T03:40:19;5.74;89.10
65369;HTU21D;51970;53.484;49.488;2022-10-20T03:42:52;5.77;89.17
65369;HTU21D;51970;53.484;49.488;2022-10-20T03:45:23;5.79;89.20
65369;HTU21D;51970;53.484;49.488;2022-10-20T03:47:54;5.79;89.21
65369;HTU21D;51970;53.484;49.488;2022-10-20T03:50:26;5.81;88.99
65369;HTU21D;51970;53.484;49.488;2022-10-20T03:52:57;5.81;88.98
65369;HTU21D;51970;53.484;49.488;2022-10-20T03:55:28;5.86;89.25
65369;HTU21D;51970;53.484;49.488;2022-10-20T03:58:00;5.92;88.98
65369;HTU21D;51970;53.484;49.488;2022-10-20T04:00:31;5.94;88.53
65369;HTU21D;51970;53.484;49.488;2022-10-20T04:03:02;5.92;88.50
65369;HTU21D;51970;53.484;49.488;2022-10-20T04:05:34;5.95;88.52
65369;HTU21D;51970;53.484;49.488;2022-10-20T04:08:05;5.97;88.31
65369;HTU21D;51970;53.484;49.488;2022-10-20T04:10:36;5.96;88.30
65369;HTU21D;51970;53.484;49.488;2022-10-20T04:13:08;6.00;88.42
65369;HTU21D;51970;53.484;49.488;2022-10-20T04:15:39;6.07;88.21
65369;HTU21D;51970;53.484;49.488;2022-10-20T04:18:12;6.17;88.15
65369;HTU21D;51970;53.484;49.488;2022-10-20T04:20:43;6.20;87.57
65369;HTU21D;51970;53.484;49.488;2022-10-20T04:23:15;6.23;87.51
65369;HTU21D;51970;53.484;49.488;2022-10-20T04:25:46;6.21;87.65
65369;HTU21D;51970;53.484;49.488;2022-10-20T04:28:19;6.22;87.69
65369;HTU21D;51970;53.484;49.488;2022-10-20T04:30:51;6.25;87.65
65369;HTU21D;51970;53.484;49.488;2022-10-20T04:33:23;6.28;87.38
65369;HTU21D;51970;53.484;49.488;2022-10-20T04:36:06;6.26;87.41
65369;HTU21D;51970;53.484;49.488;2022-10-20T04:38:37;6.31;87.57
65369;HTU21D;51970;53.484;49.488;2022-10-20T04:41:16;6.38;87.38
65369;HTU21D;51970;53.484;49.488;2022-10-20T04:43:51;6.45;87.11
65369;HTU21D;51970;53.484;49.488;2022-10-20T04:46:23;6.44;86.96
65369;HTU21D;51970;53.484;49.488;2022-10-20T04:48:55;6.59;87.06
65369;HTU21D;51970;53.484;49.488;2022-10-20T04:51:29;6.71;86.39
65369;HTU21D;51970;53.484;49.488;2022-10-20T04:54:00;6.80;86.40
65369;HTU21D;51970;53.484;49.488;2022-10-20T04:56:32;6.89;85.88
65369;HTU21D;51970;53.484;49.488;2022-10-20T04:59:08;6.99;85.41
65369;HTU21D;51970;53.484;49.488;2022-10-20T05:01:40;7.08;85.13
65369;HTU21D;51970;53.484;49.488;2022-10-20T05:04:11;7.16;84.98
65369;HTU21D;51970;53.484;49.488;2022-10-20T05:06:43;7.08;84.46
65369;HTU21D;51970;53.484;49.488;2022-10-20T05:09:15;6.97;85.23
65369;HTU21D;51970;53.484;49.488;2022-10-20T05:11:46;6.86;85.74
65369;HTU21D;51970;53.484;49.488;2022-10-20T05:14:18;6.78;86.19
65369;HTU21D;51970;53.484;49.488;2022-10-20T05:16:50;6.78;86.44
65369;HTU21D;51970;53.484;49.488;2022-10-20T05:19:22;6.73;86.26
65369;HTU21D;51970;53.484;49.488;2022-10-20T05:21:53;6.72;86.80
65369;HTU21D;51970;53.484;49.488;2022-10-20T05:24:25;6.69;86.48
65369;HTU21D;51970;53.484;49.488;2022-10-20T05:26:56;6.72;86.65
65369;HTU21D;51970;53.484;49.488;2022-10-20T05:29:29;6.82;86.68
65369;HTU21D;51970;53.484;49.488;2022-10-20T05:32:00;7.04;86.40
65369;HTU21D;51970;53.484;49.488;2022-10-20T05:34:36;7.30;85.53
65369;HTU21D;51970;53.484;49.488;2022-10-20T05:37:10;7.47;84.34
65369;HTU21D;51970;53.484;49.488;2022-10-20T05:39:43;7.81;83.32
65369;HTU21D;51970;53.484;49.488;2022-10-20T05:42:14;8.21;81.67
65369;HTU21D;51970;53.484;49.488;2022-10-20T05:44:47;8.24;81.17
65369;HTU21D;51970;53.484;49.488;2022-10-20T05:47:19;8.35;81.18
65369;HTU21D;51970;53.484;49.488;2022-10-20T05:49:58;8.46;80.94
65369;HTU21D;51970;53.484;49.488;2022-10-20T05:52:30;8.52;80.57
65369;HTU21D;51970;53.484;49.488;2022-10-20T05:55:34;8.72;79.99
65369;HTU21D;51970;53.484;49.488;2022-10-20T05:58:07;9.00;79.30
65369;HTU21D;51970;53.484;49.488;2022-10-20T06:00:42;9.02;77.84
65369;HTU21D;51970;53.484;49.488;2022-10-20T06:03:22;8.72;77.66
65369;HTU21D;51970;53.484;49.488;2022-10-20T06:06:01;8.34;78.35
65369;HTU21D;51970;53.484;49.488;2022-10-20T06:08:39;8.09;80.04
65369;HTU21D;51970;53.484;49.488;2022-10-20T06:11:19;7.92;80.09
65369;HTU21D;51970;53.484;49.488;2022-10-20T06:13:51;7.77;80.61
65369;HTU21D;51970;53.484;49.488;2022-10-20T06:16:24;7.75;81.22
65369;HTU21D;51970;53.484;49.488;2022-10-20T06:18:56;7.91;81.65
65369;HTU21D;51970;53.484;49.488;2022-10-20T06:21:30;8.22;79.81
65369;HTU21D;51970;53.484;49.488;2022-10-20T06:24:04;8.32;79.40
65369;HTU21D;51970;53.484;49.488;2022-10-20T06:26:38;8.27;78.69
65369;HTU21D;51970;53.484;49.488;2022-10-20T06:29:11;8.06;79.71
65369;HTU21D;51970;53.484;49.488;2022-10-20T06:31:59;7.88;79.72
65369;HTU21D;51970;53.484;49.488;2022-10-20T06:34:40;7.70;80.51
65369;HTU21D;51970;53.484;49.488;2022-10-20T06:37:08;7.76;80.81
65369;HTU21D;51970;53.484;49.488;2022-10-20T06:39:35;8.00;79.81
65369;HTU21D;51970;53.484;49.488;2022-10-20T06:42:01;8.04;79.25
65369;HTU21D;51970;53.484;49.488;2022-10-20T06:44:30;8.30;79.37
65369;HTU21D;51970;53.484;49.488;2022-10-20T06:46:56;8.78;78.43
65369;HTU21D;51970;53.484;49.488;2022-10-20T06:49:23;8.89;76.21
65369;HTU21D;51970;53.484;49.488;2022-10-20T06:51:53;9.01;76.02
65369;HTU21D;51970;53.484;49.488;2022-10-20T06:54:19;8.92;75.96
65369;HTU21D;51970;53.484;49.488;2022-10-20T06:56:48;8.81;76.06
65369;HTU21D;51970;53.484;49.488;2022-10-20T06:59:19;8.86;76.20
65369;HTU21D;51970;53.484;49.488;2022-10-20T07:01:46;8.89;76.14
65369;HTU21D;51970;53.484;49.488;2022-10-20T07:04:15;8.93;75.90
65369;HTU21D;51970;53.484;49.488;2022-10-20T07:06:43;8.90;75.93
65369;HTU21D;51970;53.484;49.488;2022-10-20T07:09:14;8.76;75.44
65369;HTU21D;51970;53.484;49.488;2022-10-20T07:11:40;8.75;75.63
65369;HTU21D;51970;53.484;49.488;2022-10-20T07:14:10;8.71;76.06
65369;HTU21D;51970;53.484;49.488;2022-10-20T07:16:37;8.71;75.79
65369;HTU21D;51970;53.484;49.488;2022-10-20T07:19:04;8.88;75.86
65369;HTU21D;51970;53.484;49.488;2022-10-20T07:21:32;9.01;75.12
65369;HTU21D;51970;53.484;49.488;2022-10-20T07:24:04;8.91;74.96
65369;HTU21D;51970;53.484;49.488;2022-10-20T07:26:49;8.91;76.37
65369;HTU21D;51970;53.484;49.488;2022-10-20T07:29:17;9.03;76.19
65369;HTU21D;51970;53.484;49.488;2022-10-20T07:31:46;9.14;74.74
65369;HTU21D;51970;53.484;49.488;2022-10-20T07:34:18;9.09;73.90
65369;HTU21D;51970;53.484;49.488;2022-10-20T07:36:48;9.15;74.55
65369;HTU21D;51970;53.484;49.488;2022-10-20T07:39:16;9.26;73.67
65369;HTU21D;51970;53.484;49.488;2022-10-20T07:41:42;9.41;72.73
65369;HTU21D;51970;53.484;49.488;2022-10-20T07:44:12;9.67;72.70
65369;HTU21D;51970;53.484;49.488;2022-10-20T07:46:38;9.52;71.34
65369;HTU21D;51970;53.484;49.488;2022-10-20T07:49:06;9.48;72.19
65369;HTU21D;51970;53.484;49.488;2022-10-20T07:51:32;9.51;71.88
65369;HTU21D;51970;53.484;49.488;2022-10-20T07:54:06;9.45;71.88
65369;HTU21D;51970;53.484;49.488;2022-10-20T07:56:37;9.50;72.35
65369;HTU21D;51970;53.484;49.488;2022-10-20T07:59:30;9.44;71.45
65369;HTU21D;51970;53.484;49.488;2022-10-20T08:02:00;9.46;71.55
65369;HTU21D;51970;53.484;49.488;2022-10-20T08:04:28;9.45;71.54
65369;HTU21D;51970;53.484;49.488;2022-10-20T08:06:59;9.51;71.38
65369;HTU21D;51970;53.484;49.488;2022-10-20T08:09:25;9.51;71.03
65369;HTU21D;51970;53.484;49.488;2022-10-20T08:11:51;9.49;71.76
65369;HTU21D;51970;53.484;49.488;2022-10-20T08:14:18;9.42;70.52
65369;HTU21D;51970;53.484;49.488;2022-10-20T08:16:44;9.50;70.49
65369;HTU21D;51970;53.484;49.488;2022-10-20T08:19:10;9.49;70.29
65369;HTU21D;51970;53.484;49.488;2022-10-20T08:21:37;9.37;70.76
65369;HTU21D;51970;53.484;49.488;2022-10-20T08:24:04;9.41;70.85
65369;HTU21D;51970;53.484;49.488;2022-10-20T08:26:30;9.44;70.90
65369;HTU21D;51970;53.484;49.488;2022-10-20T08:28:58;9.47;71.13
65369;HTU21D;51970;53.484;49.488;2022-10-20T08:31:24;9.60;71.92
65369;HTU21D;51970;53.484;49.488;2022-10-20T08:34:01;9.64;70.39
65369;HTU21D;51970;53.484;49.488;2022-10-20T08:36:28;9.48;71.17
65369;HTU21D;51970;53.484;49.488;2022-10-20T08:38:54;9.36;70.62
65369;HTU21D;51970;53.484;49.488;2022-10-20T08:41:33;9.21;71.77
65369;HTU21D;51970;53.484;49.488;2022-10-20T08:44:00;9.22;72.06
65369;HTU21D;51970;53.484;49.488;2022-10-20T08:46:34;9.10;72.08
65369;HTU21D;51970;53.484;49.488;2022-10-20T08:49:05;8.89;73.27
65369;HTU21D;51970;53.484;49.488;2022-10-20T08:51:34;8.80;73.77
65369;HTU21D;51970;53.484;49.488;2022-10-20T08:54:05;8.71;74.25
65369;HTU21D;51970;53.484;49.488;2022-10-20T08:56:38;8.71;75.15
65369;HTU21D;51970;53.484;49.488;2022-10-20T08:59:28;8.70;75.75
65369;HTU21D;51970;53.484;49.488;2022-10-20T09:01:57;8.66;75.93
65369;HTU21D;51970;53.484;49.488;2022-10-20T09:04:27;8.64;76.02
65369;HTU21D;51970;53.484;49.488;2022-10-20T09:07:02;8.66;76.27
65369;HTU21D;51970;53.484;49.488;2022-10-20T09:09:33;8.68;76.07
65369;HTU21D;51970;53.484;49.488;2022-10-20T09:12:06;8.78;75.57
65369;HTU21D;51970;53.484;49.488;2022-10-20T09:14:35;8.73;75.66
65369;HTU21D;51970;53.484;49.488;2022-10-20T09:17:02;8.85;75.57
65369;HTU21D;51970;53.484;49.488;2022-10-20T09:19:30;8.98;75.02
65369;HTU21D;51970;53.484;49.488;2022-10-20T09:22:03;9.05;73.84
65369;HTU21D;51970;53.484;49.488;2022-10-20T09:24:34;9.06;74.75
65369;HTU21D;51970;53.484;49.488;2022-10-20T09:27:34;9.16;74.43
65369;HTU21D;51970;53.484;49.488;2022-10-20T09:30:33;9.18;73.55
65369;HTU21D;51970;53.484;49.488;2022-10-20T09:33:08;9.29;74.20
65369;HTU21D;51970;53.484;49.488;2022-10-20T09:36:16;9.32;73.07
65369;HTU21D;51970;53.484;49.488;2022-10-20T09:38:50;9.37;73.04
65369;HTU21D;51970;53.484;49.488;2022-10-20T09:41:20;9.40;73.11
65369;HTU21D;51970;53.484;49.488;2022-10-20T09:43:53;9.41;73.75
65369;HTU21D;51970;53.484;49.488;2022-10-20T09:46:46;9.41;73.09
65369;HTU21D;51970;53.484;49.488;2022-10-20T09:49:34;9.32;73.08
65369;HTU21D;51970;53.484;49.488;2022-10-20T09:52:03;9.19;72.81
65369;HTU21D;51970;53.484;49.488;2022-10-20T09:54:38;9.16;73.06
65369;HTU21D;51970;53.484;49.488;2022-10-20T09:57:26;9.19;73.23
65369;HTU21D;51970;53.484;49.488;2022-10-20T09:59:58;9.12;73.10
65369;HTU21D;51970;53.484;49.488;2022-10-20T10:02:42;9.18;73.15
65369;HTU21D;51970;53.484;49.488;2022-10-20T10:05:17;9.29;72.42
65369;HTU21D;51970;53.484;49.488;2022-10-20T10:07:57;9.29;73.10
65369;HTU21D;51970;53.484;49.488;2022-10-20T10:10:28;9.32;72.67
65369;HTU21D;51970;53.484;49.488;2022-10-20T10:13:07;9.31;71.34
65369;HTU21D;51970;53.484;49.488;2022-10-20T10:16:10;9.30;71.67
65369;HTU21D;51970;53.484;49.488;2022-10-20T10:18:44;9.27;71.22
65369;HTU21D;51970;53.484;49.488;2022-10-20T10:21:14;9.33;71.96
65369;HTU21D;51970;53.484;49.488;2022-10-20T10:24:23;9.50;70.86
65369;HTU21D;51970;53.484;49.488;2022-10-20T10:26:54;9.51;69.76
65369;HTU21D;51970;53.484;49.488;2022-10-20T10:29:27;9.52;69.08
65369;HTU21D;51970;53.484;49.488;2022-10-20T10:32:01;9.62;68.94
65369;HTU21D;51970;53.484;49.488;2022-10-20T10:35:06;9.63;69.03
65369;HTU21D;51970;53.484;49.488;2022-10-20T10:37:58;9.70;66.86
65369;HTU21D;51970;53.484;49.488;2022-10-20T10:40:34;9.71;66.53
65369;HTU21D;51970;53.484;49.488;2022-10-20T10:51:53;10.00;65.80
65369;HTU21D;51970;53.484;49.488;2022-10-20T11:06:15;9.55;65.32
65369;HTU21D;51970;53.484;49.488;2022-10-20T11:09:19;9.51;66.00
65369;HTU21D;51970;53.484;49.488;2022-10-20T11:26:34;9.44;65.91
65369;HTU21D;51970;53.484;49.488;2022-10-20T11:29:07;9.42;65.11
65369;HTU21D;51970;53.484;49.488;2022-10-20T11:31:55;9.38;65.06
65369;HTU21D;51970;53.484;49.488;2022-10-20T11:35:01;9.35;65.24
65369;HTU21D;51970;53.484;49.488;2022-10-20T11:37:56;9.33;65.91
65369;HTU21D;51970;53.484;49.488;2022-10-20T11:40:39;9.29;65.05
65369;HTU21D;51970;53.484;49.488;2022-10-20T11:46:55;9.21;65.73
65369;HTU21D;51970;53.484;49.488;2022-10-20T11:49:24;9.23;65.46
65369;HTU21D;51970;53.484;49.488;2022-10-20T12:15:50;9.19;65.91
65369;HTU21D;51970;53.484;49.488;2022-10-20T12:18:36;9.09;66.28
65369;HTU21D;51970;53.484;49.488;2022-10-20T12:21:09;9.06;66.37
65369;HTU21D;51970;53.484;49.488;2022-10-20T12:32:35;8.81;67.30
65369;HTU21D;51970;53.484;49.488;2022-10-20T12:37:40;8.79;68.01
65369;HTU21D;51970;53.484;49.488;2022-10-20T12:40:57;8.74;69.07
65369;HTU21D;51970;53.484;49.488;2022-10-20T12:44:05;8.71;68.81
65369;HTU21D;51970;53.484;49.488;2022-10-20T12:47:36;8.65;68.70
65369;HTU21D;51970;53.484;49.488;2022-10-20T12:50:08;8.63;69.16
65369;HTU21D;51970;53.484;49.488;2022-10-20T12:53:20;8.64;68.81
65369;HTU21D;51970;53.484;49.488;2022-10-20T12:56:10;8.58;69.87
65369;HTU21D;51970;53.484;49.488;2022-10-20T13:08:31;8.49;70.30
65369;HTU21D;51970;53.484;49.488;2022-10-20T13:11:33;8.45;70.97
65369;HTU21D;51970;53.484;49.488;2022-10-20T13:14:55;8.38;70.62
65369;HTU21D;51970;53.484;49.488;2022-10-20T13:17:59;8.32;70.82
65369;HTU21D;51970;53.484;49.488;2022-10-20T13:24:29;8.22;71.49
65369;HTU21D;51970;53.484;49.488;2022-10-20T13:27:07;8.20;71.71
65369;HTU21D;51970;53.484;49.488;2022-10-20T13:29:41;8.13;71.47
65369;HTU21D;51970;53.484;49.488;2022-10-20T13:35:19;8.03;71.35
65369;HTU21D;51970;53.484;49.488;2022-10-20T13:41:14;7.99;71.64
65369;HTU21D;51970;53.484;49.488;2022-10-20T13:46:32;7.84;71.48
65369;HTU21D;51970;53.484;49.488;2022-10-20T13:52:02;7.77;71.87
65369;HTU21D;51970;53.484;49.488;2022-10-20T13:54:34;7.74;71.90
65369;HTU21D;51970;53.484;49.488;2022-10-20T13:57:02;7.71;72.48
65369;HTU21D;51970;53.484;49.488;2022-10-20T13:59:30;7.64;72.72
65369;HTU21D;51970;53.484;49.488;2022-10-20T14:02:01;7.62;72.80
65369;HTU21D;51970;53.484;49.488;2022-10-20T14:04:31;7.62;72.78
65369;HTU21D;51970;53.484;49.488;2022-10-20T14:07:05;7.58;72.99
65369;HTU21D;51970;53.484;49.488;2022-10-20T14:09:35;7.55;73.06
65369;HTU21D;51970;53.484;49.488;2022-10-20T14:12:04;7.56;73.66
65369;HTU21D;51970;53.484;49.488;2022-10-20T14:14:37;7.54;73.57
65369;HTU21D;51970;53.484;49.488;2022-10-20T14:17:14;7.54;73.80
65369;HTU21D;51970;53.484;49.488;2022-10-20T14:19:42;7.52;73.67
65369;HTU21D;51970;53.484;49.488;2022-10-20T14:22:21;7.47;73.50
65369;HTU21D;51970;53.484;49.488;2022-10-20T14:24:56;7.42;73.83
65369;HTU21D;51970;53.484;49.488;2022-10-20T14:27:35;7.43;73.90
65369;HTU21D;51970;53.484;49.488;2022-10-20T14:30:05;7.41;74.13
65369;HTU21D;51970;53.484;49.488;2022-10-20T14:32:38;7.49;73.82
65369;HTU21D;51970;53.484;49.488;2022-10-20T14:35:26;7.38;73.82
65369;HTU21D;51970;53.484;49.488;2022-10-20T14:38:01;7.39;74.19
65369;HTU21D;51970;53.484;49.488;2022-10-20T14:40:33;7.37;74.41
65369;HTU21D;51970;53.484;49.488;2022-10-20T14:43:15;7.31;74.92
65369;HTU21D;51970;53.484;49.488;2022-10-20T14:45:57;7.29;75.21
65369;HTU21D;51970;53.484;49.488;2022-10-20T14:48:44;7.26;75.15
65369;HTU21D;51970;53.484;49.488;2022-10-20T15:00:23;6.99;76.80
65369;HTU21D;51970;53.484;49.488;2022-10-20T15:02:49;6.91;76.76
65369;HTU21D;51970;53.484;49.488;2022-10-20T15:05:45;6.88;77.27
65369;HTU21D;51970;53.484;49.488;2022-10-20T15:08:26;6.83;76.89
65369;HTU21D;51970;53.484;49.488;2022-10-20T15:10:57;6.82;76.08
65369;HTU21D;51970;53.484;49.488;2022-10-20T15:13:32;6.75;75.12
65369;HTU21D;51970;53.484;49.488;2022-10-20T15:16:00;6.73;74.92
65369;HTU21D;51970;53.484;49.488;2022-10-20T15:18:31;6.72;74.99
65369;HTU21D;51970;53.484;49.488;2022-10-20T15:21:22;6.68;74.35
65369;HTU21D;51970;53.484;49.488;2022-10-20T15:24:11;6.68;74.81
65369;HTU21D;51970;53.484;49.488;2022-10-20T15:26:41;6.59;74.85
65369;HTU21D;51970;53.484;49.488;2022-10-20T15:29:17;6.57;74.74
65369;HTU21D;51970;53.484;49.488;2022-10-20T15:31:43;6.53;74.44
65369;HTU21D;51970;53.484;49.488;2022-10-20T15:34:13;6.48;74.28
65369;HTU21D;51970;53.484;49.488;2022-10-20T15:37:05;6.42;74.57
65369;HTU21D;51970;53.484;49.488;2022-10-20T15:39:33;6.39;74.86
65369;HTU21D;51970;53.484;49.488;2022-10-20T15:42:00;6.35;74.99
65369;HTU21D;51970;53.484;49.488;2022-10-20T15:44:37;6.34;74.96
65369;HTU21D;51970;53.484;49.488;2022-10-20T15:47:06;6.29;74.88
65369;HTU21D;51970;53.484;49.488;2022-10-20T15:49:35;6.29;74.77
65369;HTU21D;51970;53.484;49.488;2022-10-20T15:52:02;6.27;74.97
65369;HTU21D;51970;53.484;49.488;2022-10-20T15:54:31;6.29;75.03
65369;HTU21D;51970;53.484;49.488;2022-10-20T15:56:59;6.20;75.18
65369;HTU21D;51970;53.484;49.488;2022-10-20T15:59:49;6.16;75.21
65369;HTU21D;51970;53.484;49.488;2022-10-20T16:02:17;6.13;75.34
65369;HTU21D;51970;53.484;49.488;2022-10-20T16:04:43;6.12;75.38
65369;HTU21D;51970;53.484;49.488;2022-10-20T16:07:40;6.11;75.33
65369;HTU21D;51970;53.484;49.488;2022-10-20T16:10:15;6.06;75.44
65369;HTU21D;51970;53.484;49.488;2022-10-20T16:12:50;6.05;75.65
65369;HTU21D;51970;53.484;49.488;2022-10-20T16:15:19;6.06;75.54
65369;HTU21D;51970;53.484;49.488;2022-10-20T16:17:48;6.07;75.32
65369;HTU21D;51970;53.484;49.488;2022-10-20T16:20:34;6.09;75.41
65369;HTU21D;51970;53.484;49.488;2022-10-20T16:23:37;6.01;75.55
65369;HTU21D;51970;53.484;49.488;2022-10-20T16:26:35;5.99;75.44
65369;HTU21D;51970;53.484;49.488;2022-10-20T16:29:24;5.96;75.77
65369;HTU21D;51970;53.484;49.488;2022-10-20T16:31:51;5.94;75.70
65369;HTU21D;51970;53.484;49.488;2022-10-20T16:34:23;5.93;76.10
65369;HTU21D;51970;53.484;49.488;2022-10-20T16:36:50;5.92;75.81
65369;HTU21D;51970;53.484;49.488;2022-10-20T16:39:50;5.89;75.92
65369;HTU21D;51970;53.484;49.488;2022-10-20T16:42:42;5.92;75.76
65369;HTU21D;51970;53.484;49.488;2022-10-20T16:45:09;6.01;75.62
65369;HTU21D;51970;53.484;49.488;2022-10-20T16:47:35;5.86;75.71
65369;HTU21D;51970;53.484;49.488;2022-10-20T16:50:01;5.83;75.93
65369;HTU21D;51970;53.484;49.488;2022-10-20T16:52:28;5.81;76.33
65369;HTU21D;51970;53.484;49.488;2022-10-20T16:54:54;5.78;76.46
65369;HTU21D;51970;53.484;49.488;2022-10-20T16:57:20;5.75;76.25
65369;HTU21D;51970;53.484;49.488;2022-10-20T17:00:06;5.78;76.24
65369;HTU21D;51970;53.484;49.488;2022-10-20T17:02:36;5.77;76.35
65369;HTU21D;51970;53.484;49.488;2022-10-20T17:05:04;5.74;76.24
65369;HTU21D;51970;53.484;49.488;2022-10-20T17:07:32;5.78;76.31
65369;HTU21D;51970;53.484;49.488;2022-10-20T17:10:11;5.80;76.16
65369;HTU21D;51970;53.484;49.488;2022-10-20T17:12:54;5.85;75.97
65369;HTU21D;51970;53.484;49.488;2022-10-20T17:15:24;5.76;75.76
65369;HTU21D;51970;53.484;49.488;2022-10-20T17:17:57;5.74;76.05
65369;HTU21D;51970;53.484;49.488;2022-10-20T17:20:42;5.70;76.16
65369;HTU21D;51970;53.484;49.488;2022-10-20T17:23:10;5.67;76.29
65369;HTU21D;51970;53.484;49.488;2022-10-20T17:25:39;5.64;76.22
65369;HTU21D;51970;53.484;49.488;2022-10-20T17:28:41;5.61;76.37
65369;HTU21D;51970;53.484;49.488;2022-10-20T17:31:14;5.57;76.37
65369;HTU21D;51970;53.484;49.488;2022-10-20T17:33:59;5.55;76.73
65369;HTU21D;51970;53.484;49.488;2022-10-20T17:36:29;5.56;76.99
65369;HTU21D;51970;53.484;49.488;2022-10-20T17:39:07;5.49;76.98
65369;HTU21D;51970;53.484;49.488;2022-10-20T17:41:47;5.47;77.12
65369;HTU21D;51970;53.484;49.488;2022-10-20T17:44:41;5.42;77.42
65369;HTU21D;51970;53.484;49.488;2022-10-20T17:47:07;5.42;77.27
65369;HTU21D;51970;53.484;49.488;2022-10-20T17:49:36;5.46;77.44
65369;HTU21D;51970;53.484;49.488;2022-10-20T17:52:05;5.56;76.97
65369;HTU21D;51970;53.484;49.488;2022-10-20T17:54:35;5.48;76.99
65369;HTU21D;51970;53.484;49.488;2022-10-20T17:57:21;5.52;76.80
65369;HTU21D;51970;53.484;49.488;2022-10-20T18:00:12;5.48;76.41
65369;HTU21D;51970;53.484;49.488;2022-10-20T18:03:05;5.49;76.45
65369;HTU21D;51970;53.484;49.488;2022-10-20T18:05:36;5.60;76.73
65369;HTU21D;51970;53.484;49.488;2022-10-20T18:08:12;5.49;76.45
65369;HTU21D;51970;53.484;49.488;2022-10-20T18:10:55;5.49;76.74
65369;HTU21D;51970;53.484;49.488;2022-10-20T18:13:22;5.51;76.19
65369;HTU21D;51970;53.484;49.488;2022-10-20T18:15:54;5.49;76.41
65369;HTU21D;51970;53.484;49.488;2022-10-20T18:18:27;5.41;76.44
65369;HTU21D;51970;53.484;49.488;2022-10-20T18:20:58;5.36;76.48
65369;HTU21D;51970;53.484;49.488;2022-10-20T18:23:34;5.37;76.38
65369;HTU21D;51970;53.484;49.488;2022-10-20T18:26:16;5.35;76.06
65369;HTU21D;51970;53.484;49.488;2022-10-20T18:29:21;5.33;76.79
65369;HTU21D;51970;53.484;49.488;2022-10-20T18:31:49;5.36;76.39